createdAt,value
2023-03-12T00:01:33.783Z,6.48
2023-03-12T00:04:04.095Z,6.55
2023-03-12T00:06:31.000Z,6.57
2023-03-12T00:08:58.770Z,6.61
2023-03-12T00:11:25.297Z,6.63
2023-03-12T00:13:53.306Z,6.54
2023-03-12T00:16:20.915Z,6.53
2023-03-12T00:18:49.243Z,6.60
2023-03-12T00:21:16.247Z,6.54
2023-03-12T00:23:42.761Z,6.55
2023-03-12T00:26:12.332Z,6.61
2023-03-12T00:28:40.056Z,6.58
2023-03-12T00:31:17.242Z,6.53
2023-03-12T00:33:44.313Z,6.53
2023-03-12T00:36:11.120Z,6.53
2023-03-12T00:38:37.727Z,6.66
2023-03-12T00:41:04.397Z,6.68
2023-03-12T00:43:30.912Z,6.67
2023-03-12T00:45:57.433Z,6.60
2023-03-12T00:48:24.007Z,6.54
2023-03-12T00:50:50.733Z,6.54
2023-03-12T00:53:17.207Z,6.54
2023-03-12T00:55:43.772Z,6.58
2023-03-12T00:58:10.300Z,6.68
2023-03-12T01:00:36.857Z,6.69
2023-03-12T01:03:03.696Z,6.67
2023-03-12T01:05:30.262Z,6.61
2023-03-12T01:07:56.762Z,6.60
2023-03-12T01:10:23.431Z,6.64
2023-03-12T01:12:49.988Z,6.64
2023-03-12T01:15:17.675Z,6.47
2023-03-12T01:17:44.225Z,6.50
2023-03-12T01:20:11.243Z,6.64
2023-03-12T01:22:38.351Z,6.67
2023-03-12T01:25:05.181Z,6.79
2023-03-12T01:27:31.657Z,6.76
2023-03-12T01:29:58.235Z,6.75
2023-03-12T01:32:25.542Z,6.73
2023-03-12T01:34:52.035Z,6.74
2023-03-12T01:37:18.588Z,6.81
2023-03-12T01:39:45.071Z,6.62
2023-03-12T01:42:11.550Z,6.66
2023-03-12T01:44:57.261Z,6.80
2023-03-12T01:47:24.329Z,6.75
2023-03-12T01:49:52.299Z,6.66
2023-03-12T01:52:22.238Z,6.66
2023-03-12T01:54:56.709Z,6.54
2023-03-12T01:57:36.506Z,6.59
2023-03-12T02:00:13.857Z,6.51
2023-03-12T02:02:41.469Z,6.41
2023-03-12T02:05:10.985Z,6.39
2023-03-12T02:07:37.578Z,6.39
2023-03-12T02:10:05.511Z,6.42
2023-03-12T02:12:32.144Z,6.26
2023-03-12T02:14:58.782Z,6.25
2023-03-12T02:17:25.335Z,6.28
2023-03-12T02:20:33.449Z,6.08
2023-03-12T02:23:06.329Z,6.02
2023-03-12T02:25:42.866Z,6.06
2023-03-12T02:28:13.941Z,5.98
2023-03-12T02:30:45.202Z,6.02
2023-03-12T02:33:12.407Z,6.07
2023-03-12T02:35:39.119Z,6.09
2023-03-12T02:38:28.528Z,6.07
2023-03-12T02:40:58.164Z,5.96
2023-03-12T02:43:24.732Z,5.98
2023-03-12T02:45:51.402Z,5.99
2023-03-12T02:48:17.891Z,5.80
2023-03-12T02:50:44.513Z,5.79
2023-03-12T02:53:11.104Z,5.78
2023-03-12T02:55:37.621Z,5.75
2023-03-12T02:58:04.126Z,5.70
2023-03-12T03:00:32.219Z,5.77
2023-03-12T03:02:59.887Z,5.71
2023-03-12T03:05:26.414Z,5.73
2023-03-12T03:07:52.884Z,5.63
2023-03-12T03:10:19.573Z,5.54
2023-03-12T03:12:46.092Z,5.51
2023-03-12T03:15:12.966Z,5.53
2023-03-12T03:17:39.490Z,5.55
2023-03-12T03:20:11.030Z,5.45
2023-03-12T03:22:38.748Z,5.43
2023-03-12T03:25:06.575Z,5.56
2023-03-12T03:27:33.572Z,5.54
2023-03-12T03:30:00.442Z,5.57
2023-03-12T03:32:27.343Z,5.55
2023-03-12T03:34:53.967Z,5.59
2023-03-12T03:37:20.467Z,5.51
2023-03-12T03:39:46.929Z,5.57
2023-03-12T03:42:13.469Z,5.45
2023-03-12T03:44:39.967Z,5.40
2023-03-12T03:47:06.675Z,5.47
2023-03-12T03:49:33.246Z,5.50
2023-03-12T03:51:59.768Z,5.44
2023-03-12T03:54:26.386Z,5.56
2023-03-12T03:56:52.910Z,5.56
2023-03-12T03:59:19.423Z,5.68
2023-03-12T04:01:45.962Z,5.64
2023-03-12T04:04:12.536Z,5.67
2023-03-12T04:06:39.017Z,5.65
2023-03-12T04:09:05.732Z,5.61
2023-03-12T04:11:32.202Z,5.66
2023-03-12T04:13:58.664Z,5.59
2023-03-12T04:16:25.282Z,5.69
2023-03-12T04:18:51.982Z,5.74
2023-03-12T04:21:18.702Z,5.73
2023-03-12T04:23:45.170Z,5.74
2023-03-12T04:26:11.949Z,5.70
2023-03-12T04:28:38.663Z,5.73
2023-03-12T04:31:07.544Z,5.44
2023-03-12T04:33:36.819Z,5.44
2023-03-12T04:36:04.089Z,5.44
2023-03-12T04:38:31.179Z,5.56
2023-03-12T04:41:01.417Z,5.59
2023-03-12T04:43:29.872Z,5.51
2023-03-12T04:45:57.131Z,5.62
2023-03-12T04:48:24.356Z,5.65
2023-03-12T04:50:50.881Z,5.72
2023-03-12T04:53:17.446Z,5.74
2023-03-12T04:55:44.040Z,5.73
2023-03-12T04:58:10.838Z,5.69
2023-03-12T05:00:40.031Z,5.69
2023-03-12T05:03:07.150Z,5.63
2023-03-12T05:05:34.046Z,5.71
2023-03-12T05:08:00.507Z,5.72
2023-03-12T05:10:27.084Z,5.76
2023-03-12T05:12:53.614Z,5.78
2023-03-12T05:15:20.123Z,5.73
2023-03-12T05:17:46.699Z,5.75
2023-03-12T05:20:13.889Z,5.73
2023-03-12T05:22:40.644Z,5.66
2023-03-12T05:25:07.593Z,5.70
2023-03-12T05:27:34.261Z,5.68
2023-03-12T05:30:00.724Z,5.64
2023-03-12T05:32:27.304Z,5.59
2023-03-12T05:34:53.965Z,5.79
2023-03-12T05:37:20.458Z,5.71
2023-03-12T05:39:46.929Z,5.72
2023-03-12T05:42:14.925Z,5.80
2023-03-12T05:44:42.800Z,5.79
2023-03-12T05:47:09.385Z,5.77
2023-03-12T05:49:36.046Z,5.72
2023-03-12T05:52:02.697Z,5.69
2023-03-12T05:54:29.265Z,5.66
2023-03-12T05:56:56.366Z,5.68
2023-03-12T05:59:22.879Z,5.72
2023-03-12T06:01:49.614Z,5.72
2023-03-12T06:04:16.199Z,5.74
2023-03-12T06:06:42.702Z,5.77
2023-03-12T06:09:09.677Z,5.68
2023-03-12T06:11:36.269Z,5.80
2023-03-12T06:14:03.267Z,5.86
2023-03-12T06:16:30.234Z,5.86
2023-03-12T06:19:01.714Z,5.83
2023-03-12T06:21:31.872Z,5.89
2023-03-12T06:23:59.314Z,5.93
2023-03-12T06:26:26.556Z,6.03
2023-03-12T06:28:53.494Z,6.09
2023-03-12T06:31:20.924Z,6.07
2023-03-12T06:33:48.016Z,6.18
2023-03-12T06:36:14.571Z,6.23
2023-03-12T06:38:41.554Z,6.25
2023-03-12T06:41:12.070Z,6.30
2023-03-12T06:43:39.684Z,6.38
2023-03-12T06:46:08.759Z,6.48
2023-03-12T06:48:36.943Z,6.53
2023-03-12T06:51:04.752Z,6.62
2023-03-12T06:53:32.226Z,6.74
2023-03-12T06:55:59.236Z,6.91
2023-03-12T06:58:26.198Z,6.97
2023-03-12T07:00:54.685Z,6.93
2023-03-12T07:03:21.699Z,6.82
2023-03-12T07:05:50.293Z,7.01
2023-03-12T07:08:18.689Z,7.11
2023-03-12T07:10:46.262Z,7.24
2023-03-12T07:13:12.935Z,7.38
2023-03-12T07:15:39.488Z,7.53
2023-03-12T07:18:07.923Z,7.46
2023-03-12T07:20:37.919Z,7.53
2023-03-12T07:23:04.987Z,7.49
2023-03-12T07:25:31.784Z,7.84
2023-03-12T07:27:58.242Z,7.88
2023-03-12T07:30:24.748Z,8.08
2023-03-12T07:32:51.334Z,7.77
2023-03-12T07:35:18.023Z,8.11
2023-03-12T07:37:44.506Z,8.11
2023-03-12T07:40:11.632Z,8.19
2023-03-12T07:42:38.140Z,8.29
2023-03-12T07:45:05.088Z,8.24
2023-03-12T07:47:31.814Z,8.56
2023-03-12T07:49:58.549Z,8.72
2023-03-12T07:52:25.312Z,8.84
2023-03-12T07:54:52.874Z,8.50
2023-03-12T07:57:19.893Z,8.36
2023-03-12T07:59:47.189Z,8.30
2023-03-12T08:02:14.133Z,8.19
2023-03-12T08:04:41.020Z,8.30
2023-03-12T08:07:09.333Z,8.33
2023-03-12T08:09:36.469Z,8.45
2023-03-12T08:12:03.061Z,8.48
2023-03-12T08:14:31.745Z,8.16
2023-03-12T08:16:59.047Z,8.16
2023-03-12T08:19:25.848Z,8.04
2023-03-12T08:21:53.312Z,8.12
2023-03-12T08:24:21.542Z,8.11
2023-03-12T08:26:48.412Z,8.17
2023-03-12T08:29:16.095Z,8.13
2023-03-12T08:31:57.360Z,8.20
2023-03-12T08:34:29.228Z,8.32
2023-03-12T08:36:56.469Z,8.31
2023-03-12T08:39:23.081Z,8.20
2023-03-12T08:41:49.550Z,8.22
2023-03-12T08:44:16.038Z,8.30
2023-03-12T08:46:42.532Z,8.16
2023-03-12T08:49:09.003Z,8.14
2023-03-12T08:51:35.585Z,8.02
2023-03-12T08:54:02.142Z,8.19
2023-03-12T08:56:28.651Z,8.05
2023-03-12T08:58:55.260Z,8.17
2023-03-12T09:01:21.865Z,8.03
2023-03-12T09:03:50.946Z,8.05
2023-03-12T09:06:19.370Z,8.07
2023-03-12T09:08:46.909Z,8.16
2023-03-12T09:11:15.011Z,8.13
2023-03-12T09:14:08.220Z,8.24
2023-03-12T09:16:28.809Z,8.28
2023-03-12T09:18:55.554Z,8.22
2023-03-12T09:21:22.127Z,8.16
2023-03-12T09:23:48.639Z,8.16
2023-03-12T09:26:15.138Z,8.24
2023-03-12T09:28:42.548Z,8.15
2023-03-12T09:31:09.071Z,8.22
2023-03-12T09:33:36.002Z,8.16
2023-03-12T09:36:03.039Z,8.08
2023-03-12T09:38:31.897Z,8.12
2023-03-12T09:40:58.866Z,8.09
2023-03-12T09:43:41.412Z,8.28
2023-03-12T09:46:22.728Z,8.39
2023-03-12T09:48:52.004Z,8.48
2023-03-12T09:51:33.865Z,8.50
2023-03-12T09:54:04.035Z,8.68
2023-03-12T09:56:31.097Z,8.76
2023-03-12T09:58:57.628Z,8.77
2023-03-12T10:01:38.678Z,8.84
2023-03-12T10:04:26.185Z,8.85
2023-03-12T10:07:05.463Z,8.96
2023-03-12T10:10:03.756Z,9.30
2023-03-12T10:12:39.278Z,9.70
2023-03-12T10:15:40.102Z,9.97
2023-03-12T10:18:31.867Z,10.42
2023-03-12T10:21:01.164Z,11.03
2023-03-12T10:23:39.754Z,11.16
2023-03-12T10:26:12.419Z,11.19
2023-03-12T10:28:49.154Z,11.58
2023-03-12T10:31:23.951Z,11.87
2023-03-12T10:33:55.387Z,11.79
2023-03-12T10:36:28.581Z,11.90
2023-03-12T10:38:55.606Z,11.83
2023-03-12T10:41:25.722Z,11.68
2023-03-12T10:43:52.962Z,11.46
2023-03-12T10:46:35.001Z,11.57
2023-03-12T10:49:23.191Z,11.49
2023-03-12T10:52:03.651Z,11.56
2023-03-12T10:54:36.738Z,11.63
2023-03-12T10:57:04.213Z,11.71
2023-03-12T10:59:36.800Z,12.34
2023-03-12T11:02:23.891Z,13.03
2023-03-12T11:04:52.083Z,13.68
2023-03-12T11:07:29.863Z,13.56
2023-03-12T11:10:08.527Z,13.37
2023-03-12T11:12:37.338Z,13.72
2023-03-12T11:15:20.658Z,15.46
2023-03-12T11:17:47.400Z,16.28
2023-03-12T11:20:34.144Z,15.66
2023-03-12T11:23:14.441Z,15.03
2023-03-12T11:25:41.004Z,14.68
2023-03-12T11:28:18.112Z,14.01
2023-03-12T11:30:44.792Z,13.39
2023-03-12T11:33:12.496Z,13.10
2023-03-12T11:36:09.217Z,12.79
2023-03-12T11:39:02.253Z,12.53
2023-03-12T11:41:55.205Z,12.49
2023-03-12T11:44:42.350Z,12.50
2023-03-12T11:47:36.688Z,12.63
2023-03-12T11:50:15.073Z,12.60
2023-03-12T11:53:00.327Z,12.48
2023-03-12T11:55:38.953Z,12.28
2023-03-12T11:58:30.218Z,12.30
2023-03-12T12:01:15.402Z,12.22
2023-03-12T12:04:03.659Z,12.21
2023-03-12T12:06:52.543Z,12.96
2023-03-12T12:09:38.629Z,14.57
2023-03-12T12:12:42.631Z,15.70
2023-03-12T12:15:30.704Z,15.80
2023-03-12T12:18:35.999Z,15.65
2023-03-12T12:21:14.229Z,15.10
2023-03-12T12:24:13.232Z,14.57
2023-03-12T12:27:00.904Z,14.09
2023-03-12T12:29:43.340Z,13.49
2023-03-12T12:32:17.802Z,13.30
2023-03-12T12:34:44.336Z,13.05
2023-03-12T12:37:32.058Z,13.01
2023-03-12T12:40:30.943Z,13.20
2023-03-12T12:43:42.487Z,13.19
2023-03-12T12:46:32.202Z,12.94
2023-03-12T12:49:17.510Z,12.93
2023-03-12T12:51:49.492Z,12.91
2023-03-12T12:54:37.847Z,12.86
2023-03-12T12:57:07.031Z,12.70
2023-03-12T12:59:43.154Z,12.66
2023-03-12T13:02:19.482Z,12.93
2023-03-12T13:04:46.932Z,13.17
2023-03-12T13:07:13.377Z,13.21
2023-03-12T13:09:43.747Z,13.10
2023-03-12T13:12:25.215Z,13.27
2023-03-12T13:14:53.508Z,13.34
2023-03-12T13:17:34.962Z,13.41
2023-03-12T13:20:10.891Z,13.32
2023-03-12T13:23:15.277Z,13.37
2023-03-12T13:26:27.469Z,14.30
2023-03-12T13:29:02.714Z,14.31
2023-03-12T13:31:37.779Z,14.19
2023-03-12T13:34:19.518Z,14.80
2023-03-12T13:36:48.037Z,15.63
2023-03-12T13:39:17.298Z,16.48
2023-03-12T13:41:49.870Z,16.49
2023-03-12T13:44:34.156Z,17.04
2023-03-12T13:47:05.210Z,17.29
2023-03-12T13:49:40.004Z,17.40
2023-03-12T13:52:19.212Z,17.63
2023-03-12T13:54:49.356Z,17.87
2023-03-12T13:57:46.563Z,17.44
2023-03-12T14:00:21.309Z,17.38
2023-03-12T14:03:03.352Z,17.89
2023-03-12T14:05:34.110Z,17.94
2023-03-12T14:08:03.706Z,17.89
2023-03-12T14:10:48.195Z,18.17
2023-03-12T14:13:24.430Z,18.05
2023-03-12T14:16:18.524Z,17.56
2023-03-12T14:18:46.301Z,17.16
2023-03-12T14:21:17.674Z,16.67
2023-03-12T14:23:54.802Z,16.22
2023-03-12T14:26:31.547Z,15.99
2023-03-12T14:29:02.202Z,16.11
2023-03-12T14:31:30.377Z,16.07
2023-03-12T14:34:09.962Z,15.89
2023-03-12T14:36:41.483Z,15.49
2023-03-12T14:39:23.820Z,15.60
2023-03-12T14:41:58.919Z,15.49
2023-03-12T14:44:28.710Z,15.30
2023-03-12T14:47:16.029Z,15.13
2023-03-12T14:49:45.111Z,14.97
2023-03-12T14:52:22.134Z,15.04
2023-03-12T14:55:04.579Z,14.98
2023-03-12T14:57:31.147Z,14.87
2023-03-12T15:00:00.375Z,14.84
2023-03-12T15:02:30.174Z,14.82
2023-03-12T15:05:00.154Z,14.73
2023-03-12T15:07:34.325Z,14.57
2023-03-12T15:10:05.403Z,14.58
2023-03-12T15:12:35.448Z,14.80
2023-03-12T15:15:08.451Z,14.79
2023-03-12T15:17:35.654Z,14.63
2023-03-12T15:20:09.884Z,14.66
2023-03-12T15:22:37.544Z,14.73
2023-03-12T15:25:26.328Z,14.75
2023-03-12T15:28:24.214Z,14.69
2023-03-12T15:31:10.242Z,14.67
2023-03-12T15:33:36.827Z,14.77
2023-03-12T15:36:06.329Z,14.90
2023-03-12T15:38:38.274Z,14.93
2023-03-12T15:41:09.621Z,14.92
2023-03-12T15:43:37.648Z,14.89
2023-03-12T15:46:07.031Z,14.86
2023-03-12T15:48:37.917Z,14.84
2023-03-12T15:51:13.842Z,14.82
2023-03-12T15:53:41.130Z,14.87
2023-03-12T15:56:10.589Z,14.80
2023-03-12T15:58:40.547Z,14.47
2023-03-12T16:01:18.324Z,14.31
2023-03-12T16:03:45.794Z,14.28
2023-03-12T16:06:18.497Z,14.36
2023-03-12T16:08:48.914Z,14.26
2023-03-12T16:11:23.712Z,14.25
2023-03-12T16:13:55.179Z,14.21
2023-03-12T16:16:21.698Z,14.22
2023-03-12T16:18:48.237Z,14.19
2023-03-12T16:21:14.787Z,14.14
2023-03-12T16:23:41.291Z,14.02
2023-03-12T16:26:07.916Z,13.98
2023-03-12T16:28:36.402Z,13.91
2023-03-12T16:31:03.002Z,13.92
2023-03-12T16:33:29.443Z,13.87
2023-03-12T16:35:56.100Z,13.80
2023-03-12T16:38:22.692Z,13.82
2023-03-12T16:40:52.059Z,13.91
2023-03-12T16:43:21.747Z,13.82
2023-03-12T16:45:49.741Z,13.75
2023-03-12T16:48:19.650Z,13.75
2023-03-12T16:50:51.699Z,13.76
2023-03-12T16:53:18.862Z,13.78
2023-03-12T16:55:50.732Z,13.74
2023-03-12T16:58:19.938Z,13.73
2023-03-12T17:00:47.542Z,13.73
2023-03-12T17:03:24.840Z,13.66
2023-03-12T17:05:51.413Z,13.59
2023-03-12T17:08:17.861Z,13.63
2023-03-12T17:10:44.916Z,13.70
2023-03-12T17:13:19.055Z,13.58
2023-03-12T17:15:46.124Z,13.41
2023-03-12T17:18:13.061Z,13.28
2023-03-12T17:20:39.739Z,13.07
2023-03-12T17:23:06.654Z,12.95
2023-03-12T17:25:35.712Z,12.85
2023-03-12T17:28:02.268Z,12.72
2023-03-12T17:30:30.178Z,12.67
2023-03-12T17:33:06.414Z,12.63
2023-03-12T17:35:33.254Z,12.54
2023-03-12T17:38:00.122Z,12.41
2023-03-12T17:40:27.342Z,12.20
2023-03-12T17:42:54.082Z,12.11
2023-03-12T17:45:21.101Z,12.06
2023-03-12T17:47:47.925Z,11.93
2023-03-12T17:50:14.740Z,11.93
2023-03-12T17:52:41.291Z,11.92
2023-03-12T17:55:11.039Z,11.90
2023-03-12T17:57:38.124Z,11.74
2023-03-12T18:00:10.909Z,11.61
2023-03-12T18:02:37.424Z,11.63
2023-03-12T18:05:04.274Z,11.54
2023-03-12T18:07:30.740Z,11.53
2023-03-12T18:09:57.274Z,11.51
2023-03-12T18:12:23.807Z,11.47
2023-03-12T18:14:50.343Z,11.53
2023-03-12T18:17:16.823Z,11.49
2023-03-12T18:19:43.497Z,11.49
2023-03-12T18:22:14.086Z,11.45
2023-03-12T18:24:41.774Z,11.43
2023-03-12T18:27:08.429Z,11.43
2023-03-12T18:29:36.840Z,11.47
2023-03-12T18:32:04.256Z,11.42
2023-03-12T18:34:30.765Z,11.42
2023-03-12T18:36:57.313Z,11.41
2023-03-12T18:39:23.923Z,11.39
2023-03-12T18:41:50.862Z,11.27
2023-03-12T18:44:17.297Z,11.20
2023-03-12T18:46:43.886Z,11.19
2023-03-12T18:49:12.359Z,11.24
2023-03-12T18:51:38.929Z,11.27
2023-03-12T18:54:05.463Z,11.26
2023-03-12T18:56:31.957Z,11.27
2023-03-12T18:58:58.503Z,11.30
2023-03-12T19:01:26.099Z,11.26
2023-03-12T19:03:52.670Z,11.18
2023-03-12T19:06:19.215Z,11.05
2023-03-12T19:08:45.901Z,10.97
2023-03-12T19:11:15.627Z,10.92
2023-03-12T19:13:42.842Z,10.74
2023-03-12T19:16:11.638Z,10.74
2023-03-12T19:18:38.829Z,10.58
2023-03-12T19:21:08.334Z,10.45
2023-03-12T19:23:35.661Z,10.41
2023-03-12T19:26:02.514Z,10.35
2023-03-12T19:28:29.127Z,10.33
2023-03-12T19:31:03.594Z,10.26
2023-03-12T19:33:30.808Z,10.12
2023-03-12T19:35:57.968Z,10.24
2023-03-12T19:38:24.561Z,10.05
2023-03-12T19:40:55.881Z,9.98
2023-03-12T19:43:23.127Z,9.98
2023-03-12T19:45:50.314Z,9.91
2023-03-12T19:48:17.074Z,9.79
2023-03-12T19:50:46.553Z,9.88
2023-03-12T19:53:13.567Z,9.81
2023-03-12T19:55:40.073Z,9.70
2023-03-12T19:58:08.127Z,9.65
2023-03-12T20:00:34.747Z,9.49
2023-03-12T20:03:01.427Z,9.51
2023-03-12T20:05:28.053Z,9.56
2023-03-12T20:07:54.559Z,9.68
2023-03-12T20:10:21.379Z,9.57
2023-03-12T20:12:47.913Z,9.41
2023-03-12T20:15:14.545Z,9.43
2023-03-12T20:17:41.050Z,9.61
2023-03-12T20:20:09.188Z,9.51
2023-03-12T20:22:36.430Z,9.39
2023-03-12T20:25:05.506Z,9.30
2023-03-12T20:27:34.034Z,9.24
2023-03-12T20:30:00.843Z,9.22
2023-03-12T20:32:27.445Z,9.20
2023-03-12T20:34:53.972Z,9.09
2023-03-12T20:37:20.470Z,9.11
2023-03-12T20:39:46.927Z,9.33
2023-03-12T20:42:13.484Z,9.40
2023-03-12T20:44:40.022Z,9.32
2023-03-12T20:47:06.533Z,9.41
2023-03-12T20:49:33.448Z,9.31
2023-03-12T20:52:00.197Z,9.36
2023-03-12T20:54:27.731Z,9.32
2023-03-12T20:56:54.299Z,9.35
2023-03-12T20:59:20.849Z,9.37
2023-03-12T21:01:47.368Z,9.22
2023-03-12T21:04:13.856Z,9.19
2023-03-12T21:06:43.445Z,9.32
2023-03-12T21:09:09.999Z,9.40
2023-03-12T21:11:37.442Z,9.33
2023-03-12T21:14:04.084Z,9.20
2023-03-12T21:16:30.605Z,9.17
2023-03-12T21:18:58.097Z,9.28
2023-03-12T21:21:24.825Z,9.32
2023-03-12T21:23:51.478Z,9.30
2023-03-12T21:26:18.618Z,9.30
2023-03-12T21:28:45.539Z,9.31
2023-03-12T21:31:15.493Z,9.20
2023-03-12T21:33:42.902Z,9.17
2023-03-12T21:36:12.202Z,9.12
2023-03-12T21:38:40.346Z,9.22
2023-03-12T21:41:08.924Z,9.15
2023-03-12T21:43:36.041Z,9.26
2023-03-12T21:46:10.545Z,9.08
2023-03-12T21:48:37.461Z,9.02
2023-03-12T21:51:06.168Z,8.97
2023-03-12T21:53:33.357Z,8.97
2023-03-12T21:56:01.352Z,8.84
2023-03-12T21:58:29.671Z,9.00
2023-03-12T22:01:13.870Z,9.11
2023-03-12T22:03:42.208Z,9.05
2023-03-12T22:06:10.073Z,9.10
2023-03-12T22:08:36.983Z,9.02
2023-03-12T22:11:05.128Z,8.98
2023-03-12T22:13:31.848Z,8.87
2023-03-12T22:16:00.973Z,8.80
2023-03-12T22:18:28.453Z,8.86
2023-03-12T22:20:57.613Z,8.94
2023-03-12T22:23:24.981Z,8.91
2023-03-12T22:25:51.513Z,8.88
2023-03-12T22:28:18.103Z,8.95
2023-03-12T22:30:44.768Z,8.87
2023-03-12T22:33:11.646Z,8.79
2023-03-12T22:35:48.639Z,8.71
2023-03-12T22:38:15.328Z,8.65
2023-03-12T22:40:42.158Z,8.68
2023-03-12T22:43:08.896Z,8.61
2023-03-12T22:45:35.729Z,8.55
2023-03-12T22:48:02.518Z,8.63
2023-03-12T22:50:29.053Z,8.58
2023-03-12T22:52:55.554Z,8.57
2023-03-12T22:55:22.081Z,8.47
2023-03-12T22:57:48.526Z,8.42
2023-03-12T23:00:18.289Z,8.43
2023-03-12T23:02:44.866Z,8.31
2023-03-12T23:05:11.677Z,8.40
2023-03-12T23:07:38.295Z,8.38
2023-03-12T23:10:05.673Z,8.34
2023-03-12T23:12:32.809Z,8.23
2023-03-12T23:14:59.444Z,8.23
2023-03-12T23:17:25.990Z,8.30
2023-03-12T23:19:52.498Z,8.09
2023-03-12T23:22:18.987Z,8.12
2023-03-12T23:24:45.512Z,8.15
2023-03-12T23:27:12.015Z,8.10
2023-03-12T23:29:38.619Z,8.17
2023-03-12T23:32:05.588Z,8.19
2023-03-12T23:34:34.146Z,8.22
2023-03-12T23:37:00.801Z,8.18
2023-03-12T23:39:29.769Z,8.19
2023-03-12T23:41:56.841Z,8.15
2023-03-12T23:44:23.606Z,8.21
2023-03-12T23:46:50.160Z,8.24
2023-03-12T23:49:16.671Z,8.30
2023-03-12T23:51:43.172Z,8.20
2023-03-12T23:54:09.649Z,8.22
2023-03-12T23:56:38.615Z,8.27
2023-03-12T23:59:06.371Z,8.24
